Time;durP1;ratioP1;P1;durP2;ratioP2;P2;SDS_P1;SDS_P2;PMS_P1;PMS_P2;Temp;Humidity;BMP_temperature;BMP_pressure;BME280_temperature;BME280_humidity;BME280_pressure;Samples;Min_cycle;Max_cycle;Signal;HPM_P1;HPM_P2
2021/09/05 00:00:48;;;;;;;0.10;0.10;;;11.30;82.60;;;;;;5054539;28;20032;-74
2021/09/05 00:03:14;;;;;;;0.10;0.10;;;11.30;82.40;;;;;;5054318;28;20082;-74
2021/09/05 00:05:40;;;;;;;0.10;0.10;;;11.30;82.50;;;;;;5054266;28;20029;-75
2021/09/05 00:08:05;;;;;;;0.10;0.10;;;11.20;82.50;;;;;;5054170;28;20036;-75
2021/09/05 00:10:31;;;;;;;0.10;0.10;;;11.20;82.70;;;;;;5054151;28;20048;-74
2021/09/05 00:12:56;;;;;;;0.10;0.10;;;11.20;82.60;;;;;;5054150;28;20017;-74
2021/09/05 00:15:22;;;;;;;0.10;0.10;;;11.30;82.50;;;;;;5054103;28;20103;-74
2021/09/05 00:17:48;;;;;;;0.10;0.10;;;11.30;82.10;;;;;;5053874;28;20041;-75
2021/09/05 00:20:13;;;;;;;0.10;0.10;;;11.30;82.00;;;;;;5053940;28;20049;-74
2021/09/05 00:22:39;;;;;;;0.00;0.00;;;11.30;81.70;;;;;;5053965;28;20021;-74
2021/09/05 00:25:05;;;;;;;0.08;0.08;;;11.20;81.70;;;;;;5053811;28;20438;-74
2021/09/05 00:27:31;;;;;;;0.10;0.10;;;11.20;81.70;;;;;;5053727;28;20039;-74
2021/09/05 00:29:57;;;;;;;0.10;0.10;;;11.20;81.80;;;;;;5053740;28;20092;-74
2021/09/05 00:32:22;;;;;;;0.10;0.10;;;11.20;81.70;;;;;;5054154;28;20537;-74
2021/09/05 00:34:48;;;;;;;0.10;0.10;;;11.10;81.80;;;;;;5053807;28;20535;-75
2021/09/05 00:37:14;;;;;;;0.10;0.10;;;11.10;81.80;;;;;;5054115;28;20097;-74
2021/09/05 00:39:39;;;;;;;0.10;0.10;;;11.00;81.80;;;;;;5053838;28;20123;-75
2021/09/05 00:42:05;;;;;;;0.10;0.10;;;11.00;81.90;;;;;;5053558;28;20041;-74
2021/09/05 00:44:31;;;;;;;0.00;0.00;;;11.00;81.60;;;;;;5053687;28;20070;-74
2021/09/05 00:46:56;;;;;;;0.10;0.10;;;10.90;81.70;;;;;;5054044;28;20037;-74
2021/09/05 00:49:22;;;;;;;0.10;0.10;;;10.90;81.60;;;;;;5053681;28;20032;-74
2021/09/05 00:51:48;;;;;;;0.10;0.10;;;10.80;81.50;;;;;;5054920;28;20386;-74
2021/09/05 00:54:14;;;;;;;0.10;0.10;;;10.80;81.60;;;;;;5053918;28;20142;-74
2021/09/05 00:56:44;;;;;;;0.00;0.00;;;10.80;81.90;;;;;;5052034;28;20040;-74
2021/09/05 00:59:22;;;;;;;0.10;0.10;;;10.80;81.80;;;;;;5053802;28;20029;-74
2021/09/05 01:01:48;;;;;;;0.10;0.10;;;10.70;81.60;;;;;;5052612;28;20440;-74
2021/09/05 01:04:13;;;;;;;0.00;0.00;;;10.70;81.40;;;;;;5053761;28;20037;-74
2021/09/05 01:06:40;;;;;;;0.10;0.10;;;10.70;81.30;;;;;;5053288;28;20043;-74
2021/09/05 01:09:07;;;;;;;0.00;0.00;;;10.70;81.20;;;;;;5053685;28;20489;-74
2021/09/05 01:11:34;;;;;;;0.00;0.00;;;10.60;81.20;;;;;;5051865;28;20063;-74
2021/09/05 01:14:01;;;;;;;0.10;0.10;;;10.60;81.20;;;;;;5052078;28;20553;-74
2021/09/05 01:16:32;;;;;;;0.03;0.03;;;10.50;81.10;;;;;;5053013;28;20033;-74
2021/09/05 01:19:18;;;;;;;0.03;0.03;;;10.40;81.20;;;;;;5053550;28;20029;-74
2021/09/05 01:21:47;;;;;;;0.03;0.03;;;10.40;81.90;;;;;;5053095;28;20078;-74
2021/09/05 01:24:13;;;;;;;0.00;0.00;;;10.30;81.30;;;;;;5052026;28;20032;-74
2021/09/05 01:26:43;;;;;;;0.00;0.00;;;10.30;81.50;;;;;;5053095;28;20382;-74
2021/09/05 01:29:09;;;;;;;0.10;0.10;;;10.30;81.60;;;;;;5053399;28;20025;-74
2021/09/05 01:31:55;;;;;;;0.10;0.10;;;10.20;81.80;;;;;;5052965;28;20078;-74
2021/09/05 01:34:24;;;;;;;0.00;0.00;;;10.20;82.10;;;;;;5053428;28;20029;-75
2021/09/05 01:36:52;;;;;;;0.00;0.00;;;10.10;82.10;;;;;;5053065;28;20044;-74
2021/09/05 01:39:19;;;;;;;0.10;0.10;;;10.10;82.20;;;;;;5053416;28;20029;-74
2021/09/05 01:41:45;;;;;;;0.10;0.10;;;10.10;82.30;;;;;;5052946;28;20155;-74
2021/09/05 01:44:14;;;;;;;0.00;0.00;;;10.10;82.50;;;;;;5053400;28;20097;-74
2021/09/05 01:46:40;;;;;;;0.00;0.00;;;10.20;82.50;;;;;;5052840;28;20028;-74
2021/09/05 01:49:06;;;;;;;0.05;0.05;;;10.10;82.50;;;;;;5053283;28;20025;-74
2021/09/05 01:51:32;;;;;;;0.10;0.10;;;10.10;82.60;;;;;;5054114;28;20028;-75
2021/09/05 01:53:58;;;;;;;0.00;0.00;;;10.10;82.70;;;;;;5053304;28;20040;-75
2021/09/05 01:56:26;;;;;;;0.00;0.00;;;10.10;82.80;;;;;;5052782;28;20029;-74
2021/09/05 01:58:52;;;;;;;0.10;0.10;;;10.20;83.00;;;;;;5053174;28;20025;-74
2021/09/05 02:01:18;;;;;;;0.10;0.10;;;10.20;83.00;;;;;;5052663;28;20024;-74
2021/09/05 02:03:43;;;;;;;0.10;0.10;;;10.20;83.00;;;;;;5053151;28;20033;-74
2021/09/05 02:06:09;;;;;;;0.00;0.00;;;10.10;83.10;;;;;;5052613;28;20043;-74
2021/09/05 02:08:35;;;;;;;0.05;0.05;;;10.10;83.10;;;;;;5053230;28;20082;-74
2021/09/05 02:11:01;;;;;;;0.10;0.10;;;10.10;83.30;;;;;;5052581;28;20017;-74
2021/09/05 02:13:26;;;;;;;0.10;0.10;;;10.10;83.50;;;;;;5056613;28;20040;-74
2021/09/05 02:15:52;;;;;;;0.03;0.03;;;10.00;83.60;;;;;;5056303;28;20025;-74
2021/09/05 02:18:19;;;;;;;0.10;0.10;;;10.00;83.80;;;;;;5056633;28;20025;-74
2021/09/05 02:20:44;;;;;;;0.05;0.05;;;9.90;83.90;;;;;;5056235;28;20038;-74
2021/09/05 02:23:10;;;;;;;0.10;0.10;;;9.90;84.30;;;;;;5056427;28;20447;-74
2021/09/05 02:25:36;;;;;;;0.00;0.00;;;9.80;84.50;;;;;;5056172;28;20035;-74
2021/09/05 02:28:02;;;;;;;0.10;0.10;;;9.80;84.80;;;;;;5056253;28;20025;-74
2021/09/05 02:30:27;;;;;;;0.10;0.10;;;9.80;85.00;;;;;;5056133;28;20100;-74
2021/09/05 02:32:53;;;;;;;0.10;0.10;;;9.80;85.20;;;;;;5056261;28;20029;-74
2021/09/05 02:35:19;;;;;;;0.10;0.10;;;9.80;85.70;;;;;;5055948;28;20025;-74
2021/09/05 02:37:44;;;;;;;0.10;0.10;;;9.80;86.10;;;;;;5055919;28;20041;-74
2021/09/05 02:40:10;;;;;;;0.00;0.00;;;9.80;86.70;;;;;;5055896;28;20025;-74
2021/09/05 02:42:36;;;;;;;0.00;0.00;;;9.80;86.70;;;;;;5055946;28;20421;-74
2021/09/05 02:45:04;;;;;;;0.10;0.10;;;9.90;87.40;;;;;;5055831;28;20058;-74
2021/09/05 02:47:30;;;;;;;0.00;0.00;;;9.90;86.60;;;;;;5055819;28;20025;-74
2021/09/05 02:49:56;;;;;;;0.00;0.00;;;9.90;86.30;;;;;;5055764;28;20025;-74
2021/09/05 02:52:22;;;;;;;0.10;0.10;;;9.90;86.10;;;;;;5057328;28;20098;-74
2021/09/05 02:54:48;;;;;;;0.00;0.00;;;9.80;86.00;;;;;;5055741;28;20551;-74
2021/09/05 02:57:14;;;;;;;0.10;0.10;;;9.80;86.00;;;;;;5055437;28;20047;-74
2021/09/05 02:59:39;;;;;;;0.10;0.10;;;9.70;86.00;;;;;;5055629;28;20029;-74
2021/09/05 03:02:05;;;;;;;0.10;0.10;;;9.70;86.40;;;;;;5055318;28;20500;-74
2021/09/05 03:04:31;;;;;;;0.10;0.10;;;9.60;86.50;;;;;;5055469;28;20040;-74
2021/09/05 03:06:56;;;;;;;0.05;0.05;;;9.60;86.80;;;;;;5055359;28;20445;-74
2021/09/05 03:09:22;;;;;;;0.10;0.10;;;9.60;87.10;;;;;;5055921;28;20360;-75
2021/09/05 03:11:49;;;;;;;0.10;0.10;;;9.50;87.30;;;;;;5055253;28;20029;-74
2021/09/05 03:14:14;;;;;;;0.00;0.00;;;9.50;87.50;;;;;;5055576;28;20033;-75
2021/09/05 03:16:40;;;;;;;0.00;0.00;;;9.50;87.40;;;;;;5053492;28;20508;-74
2021/09/05 03:19:05;;;;;;;0.00;0.00;;;9.50;87.50;;;;;;5054870;28;20072;-74
2021/09/05 03:21:31;;;;;;;0.10;0.10;;;9.40;87.70;;;;;;5053954;28;20037;-74
2021/09/05 03:23:57;;;;;;;0.10;0.10;;;9.40;88.10;;;;;;5053608;28;20032;-74
2021/09/05 03:26:22;;;;;;;0.00;0.00;;;9.40;88.20;;;;;;5054660;28;20025;-74
2021/09/05 03:28:48;;;;;;;0.00;0.00;;;9.40;88.40;;;;;;5054430;28;20516;-74
2021/09/05 03:31:14;;;;;;;0.10;0.10;;;9.40;88.50;;;;;;5054206;28;20059;-74
2021/09/05 03:33:39;;;;;;;0.08;0.08;;;9.40;88.80;;;;;;5053704;28;20071;-74
2021/09/05 03:36:05;;;;;;;0.10;0.10;;;9.40;89.20;;;;;;5054324;28;20063;-74
2021/09/05 03:38:31;;;;;;;0.00;0.00;;;9.40;89.20;;;;;;5054861;28;20099;-74
2021/09/05 03:40:57;;;;;;;0.00;0.00;;;9.50;89.30;;;;;;5053961;28;20063;-74
2021/09/05 03:43:23;;;;;;;0.05;0.05;;;9.50;89.20;;;;;;5053482;28;20060;-75
2021/09/05 03:45:49;;;;;;;0.00;0.00;;;9.60;89.30;;;;;;5054359;28;20434;-74
2021/09/05 03:48:15;;;;;;;0.08;0.08;;;9.60;89.10;;;;;;5053986;28;20398;-75
2021/09/05 03:50:40;;;;;;;0.00;0.00;;;9.70;88.90;;;;;;5053757;28;20021;-74
2021/09/05 03:53:06;;;;;;;0.10;0.10;;;9.70;88.70;;;;;;5053623;28;20033;-74
2021/09/05 03:55:32;;;;;;;0.10;0.10;;;9.80;88.50;;;;;;5053557;28;20500;-75
2021/09/05 03:57:57;;;;;;;0.03;0.03;;;9.90;88.40;;;;;;5051696;28;20512;-74
2021/09/05 04:00:23;;;;;;;0.00;0.00;;;9.90;88.60;;;;;;5052759;28;20440;-74
2021/09/05 04:02:49;;;;;;;0.10;0.10;;;10.00;87.60;;;;;;5053132;28;20435;-75
2021/09/05 04:05:14;;;;;;;0.08;0.08;;;10.10;87.30;;;;;;5053309;28;20509;-74
2021/09/05 04:07:44;;;;;;;0.10;0.10;;;10.20;87.10;;;;;;5053724;28;20033;-75
2021/09/05 04:10:11;;;;;;;0.05;0.05;;;10.20;86.80;;;;;;5053904;28;20017;-75
2021/09/05 04:12:41;;;;;;;0.10;0.10;;;10.40;86.40;;;;;;5053490;28;20048;-74
2021/09/05 04:15:08;;;;;;;0.10;0.10;;;10.50;86.00;;;;;;5053753;28;20098;-77
2021/09/05 04:17:34;;;;;;;0.03;0.03;;;10.50;85.70;;;;;;5054287;28;20041;-75
2021/09/05 04:20:00;;;;;;;0.10;0.10;;;10.60;85.40;;;;;;5054006;28;20385;-74
2021/09/05 04:22:26;;;;;;;0.10;0.10;;;10.70;85.00;;;;;;5054002;28;20036;-75
2021/09/05 04:24:52;;;;;;;0.00;0.00;;;10.80;84.70;;;;;;5053987;28;20074;-75
2021/09/05 04:27:18;;;;;;;0.10;0.10;;;10.90;84.50;;;;;;5053724;28;20478;-75
2021/09/05 04:29:43;;;;;;;0.10;0.10;;;11.00;84.20;;;;;;5053862;28;20036;-75
2021/09/05 04:32:09;;;;;;;0.10;0.10;;;11.10;83.70;;;;;;5053655;28;20031;-75
2021/09/05 04:34:35;;;;;;;0.10;0.10;;;11.20;83.30;;;;;;5053567;28;20070;-75
2021/09/05 04:37:00;;;;;;;0.10;0.10;;;11.30;82.80;;;;;;5053711;28;20044;-76
2021/09/05 04:39:26;;;;;;;0.00;0.00;;;11.50;82.60;;;;;;5054235;28;20029;-76
2021/09/05 04:41:52;;;;;;;0.05;0.05;;;11.60;82.30;;;;;;5053656;28;20029;-75
2021/09/05 04:44:18;;;;;;;0.10;0.10;;;11.80;82.50;;;;;;5053501;28;20104;-76
2021/09/05 04:46:43;;;;;;;0.10;0.10;;;12.10;82.70;;;;;;5052320;28;20109;-75
2021/09/05 04:49:10;;;;;;;0.10;0.10;;;12.40;82.00;;;;;;5054287;28;20379;-76
2021/09/05 04:51:35;;;;;;;0.10;0.10;;;12.70;81.30;;;;;;5054686;28;20505;-76
2021/09/05 04:54:01;;;;;;;0.03;0.03;;;13.30;80.60;;;;;;5052384;28;20037;-76
2021/09/05 04:56:26;;;;;;;0.10;0.10;;;14.00;78.50;;;;;;5053462;28;20094;-75
2021/09/05 04:58:52;;;;;;;0.10;0.10;;;14.50;76.40;;;;;;5053808;28;20029;-75
2021/09/05 05:01:18;;;;;;;0.10;0.10;;;14.80;75.90;;;;;;5053201;28;20067;-75
2021/09/05 05:03:43;;;;;;;0.00;0.00;;;15.30;75.00;;;;;;5053555;28;20112;-75
2021/09/05 05:06:09;;;;;;;0.10;0.10;;;15.80;74.30;;;;;;5053157;28;20067;-75
2021/09/05 05:08:35;;;;;;;0.10;0.10;;;16.40;73.80;;;;;;5053610;28;20057;-76
2021/09/05 05:11:01;;;;;;;0.00;0.00;;;17.10;72.40;;;;;;5053138;28;20017;-76
2021/09/05 05:13:27;;;;;;;0.10;0.10;;;17.70;70.80;;;;;;5053495;28;20124;-76
2021/09/05 05:15:55;;;;;;;0.00;0.00;;;18.20;69.60;;;;;;5051779;28;20099;-76
2021/09/05 05:18:24;;;;;;;0.03;0.03;;;18.70;68.60;;;;;;5052238;28;20029;-77
2021/09/05 05:20:51;;;;;;;0.08;0.08;;;19.20;67.50;;;;;;5053499;28;20063;-76
2021/09/05 05:23:17;;;;;;;0.00;0.00;;;19.70;66.50;;;;;;5053473;28;20036;-76
2021/09/05 05:25:44;;;;;;;0.10;0.10;;;20.10;65.10;;;;;;5053030;28;20092;-76
2021/09/05 05:28:09;;;;;;;0.03;0.03;;;20.60;64.30;;;;;;5053182;28;20365;-76
2021/09/05 05:30:35;;;;;;;0.00;0.00;;;21.10;62.80;;;;;;5053078;28;20021;-76
2021/09/05 05:33:01;;;;;;;0.03;0.03;;;21.30;61.40;;;;;;5053123;28;20419;-76
2021/09/05 05:35:27;;;;;;;0.10;0.00;;;21.70;60.80;;;;;;5052978;28;20044;-76
2021/09/05 05:37:53;;;;;;;0.00;0.00;;;22.00;59.70;;;;;;5053157;28;20459;-76
2021/09/05 05:40:22;;;;;;;0.00;0.00;;;22.40;58.40;;;;;;5052896;28;20386;-76
2021/09/05 05:42:49;;;;;;;0.05;0.05;;;22.70;58.00;;;;;;5053064;28;20450;-76
2021/09/05 05:45:18;;;;;;;0.00;0.00;;;23.00;57.20;;;;;;5053139;28;20375;-76
2021/09/05 05:47:44;;;;;;;0.00;0.00;;;23.30;55.70;;;;;;5055717;28;20112;-76
2021/09/05 05:50:11;;;;;;;0.00;0.00;;;23.50;54.80;;;;;;5056804;28;20029;-76
2021/09/05 05:52:37;;;;;;;0.00;0.00;;;23.40;54.00;;;;;;5058081;28;20478;-76
2021/09/05 05:55:03;;;;;;;0.00;0.00;;;23.30;53.50;;;;;;5056756;28;20017;-76
2021/09/05 05:57:29;;;;;;;0.00;0.00;;;23.30;53.50;;;;;;5056813;28;20528;-75
2021/09/05 05:59:54;;;;;;;0.00;0.00;;;23.70;53.20;;;;;;5056662;28;20029;-76
2021/09/05 06:02:20;;;;;;;0.00;0.00;;;24.00;52.70;;;;;;5056637;28;20025;-76
2021/09/05 06:04:46;;;;;;;0.00;0.00;;;24.50;51.80;;;;;;5056542;28;20029;-77
2021/09/05 06:07:11;;;;;;;0.00;0.00;;;24.80;51.00;;;;;;5056668;28;20029;-77
2021/09/05 06:09:41;;;;;;;0.00;0.00;;;25.10;50.30;;;;;;5056550;28;20132;-77
2021/09/05 06:12:08;;;;;;;0.00;0.00;;;25.30;49.40;;;;;;5056289;28;20036;-77
2021/09/05 06:14:34;;;;;;;0.00;0.00;;;25.50;49.20;;;;;;5056423;28;20470;-76
2021/09/05 06:17:00;;;;;;;0.00;0.00;;;25.70;48.90;;;;;;5056188;28;20037;-76
2021/09/05 06:19:26;;;;;;;0.00;0.00;;;26.00;48.60;;;;;;5056788;28;20029;-76
2021/09/05 06:21:51;;;;;;;0.00;0.00;;;26.40;47.90;;;;;;5056298;28;20082;-77
2021/09/05 06:24:17;;;;;;;0.00;0.00;;;26.70;47.30;;;;;;5055133;28;20029;-76
2021/09/05 06:26:43;;;;;;;0.00;0.00;;;26.80;47.00;;;;;;5056161;28;20531;-76
2021/09/05 06:29:09;;;;;;;0.00;0.00;;;26.90;46.30;;;;;;5054791;28;20030;-76
2021/09/05 06:31:35;;;;;;;0.00;0.00;;;27.00;45.70;;;;;;5055969;28;20505;-76
2021/09/05 06:34:00;;;;;;;0.00;0.00;;;27.30;45.60;;;;;;5054877;28;20088;-76
2021/09/05 06:36:26;;;;;;;0.00;0.00;;;27.30;45.00;;;;;;5055960;28;20440;-76
2021/09/05 06:38:51;;;;;;;0.00;0.00;;;27.50;44.90;;;;;;5056423;28;20521;-76
2021/09/05 06:41:17;;;;;;;0.00;0.00;;;27.90;44.60;;;;;;5055848;28;20059;-76
2021/09/05 06:43:43;;;;;;;0.00;0.00;;;28.30;44.30;;;;;;5056199;28;20065;-76
2021/09/05 06:46:08;;;;;;;0.00;0.00;;;28.60;43.60;;;;;;5055713;28;20104;-76
2021/09/05 06:48:34;;;;;;;0.00;0.00;;;28.80;43.00;;;;;;5056210;28;20032;-76
2021/09/05 06:51:03;;;;;;;0.00;0.00;;;28.90;42.70;;;;;;5057016;28;20063;-76
2021/09/05 06:53:28;;;;;;;0.00;0.00;;;29.10;41.80;;;;;;5055956;28;20040;-77
2021/09/05 06:55:54;;;;;;;0.00;0.00;;;29.10;41.80;;;;;;5055504;28;20036;-76
2021/09/05 06:58:19;;;;;;;0.00;0.00;;;29.20;41.20;;;;;;5054540;28;20036;-76
2021/09/05 07:00:45;;;;;;;0.00;0.00;;;29.20;40.40;;;;;;5055519;28;20137;-77
2021/09/05 07:03:11;;;;;;;0.00;0.00;;;29.20;40.50;;;;;;5055697;28;20036;-77
2021/09/05 07:05:36;;;;;;;0.00;0.00;;;29.30;40.40;;;;;;5055375;28;20482;-76
2021/09/05 07:08:02;;;;;;;0.00;0.00;;;29.60;40.40;;;;;;5055501;28;20367;-76
2021/09/05 07:10:28;;;;;;;0.00;0.00;;;30.00;40.20;;;;;;5055261;28;20025;-76
2021/09/05 07:12:53;;;;;;;0.00;0.00;;;30.20;39.90;;;;;;5055481;28;20079;-76
2021/09/05 07:15:19;;;;;;;0.00;0.00;;;30.30;39.60;;;;;;5055239;28;20524;-77
2021/09/05 07:17:45;;;;;;;0.00;0.00;;;30.40;39.10;;;;;;5055166;28;20037;-76
2021/09/05 07:20:11;;;;;;;0.00;0.00;;;30.50;38.90;;;;;;5055160;28;20021;-76
2021/09/05 07:22:37;;;;;;;0.00;0.00;;;30.40;38.80;;;;;;5055462;28;20051;-77
2021/09/05 07:25:03;;;;;;;0.00;0.00;;;30.40;38.80;;;;;;5055101;28;20025;-77
2021/09/05 07:27:29;;;;;;;0.00;0.00;;;30.50;38.50;;;;;;5055176;28;20431;-76
2021/09/05 07:29:55;;;;;;;0.00;0.00;;;30.70;38.40;;;;;;5054916;28;20413;-76
2021/09/05 07:32:21;;;;;;;0.00;0.00;;;30.80;38.20;;;;;;5054895;28;20024;-76
2021/09/05 07:34:47;;;;;;;0.00;0.00;;;30.80;37.90;;;;;;5053640;28;20061;-76
2021/09/05 07:37:14;;;;;;;0.00;0.00;;;30.50;37.90;;;;;;5054082;28;20040;-76
2021/09/05 07:39:39;;;;;;;0.00;0.00;;;30.20;37.90;;;;;;5053446;28;20421;-76
2021/09/05 07:42:05;;;;;;;0.00;0.00;;;29.90;38.00;;;;;;5054630;28;20021;-76
2021/09/05 07:44:31;;;;;;;0.00;0.00;;;29.80;37.70;;;;;;5054568;28;20025;-76
2021/09/05 07:46:56;;;;;;;0.00;0.00;;;29.90;37.70;;;;;;5054548;28;20035;-76
2021/09/05 07:49:22;;;;;;;0.00;0.00;;;30.10;37.60;;;;;;5055251;28;20029;-76
2021/09/05 07:51:47;;;;;;;0.00;0.00;;;30.20;37.30;;;;;;5056060;28;20032;-76
2021/09/05 07:54:14;;;;;;;0.00;0.00;;;30.30;37.40;;;;;;5055024;28;20115;-76
2021/09/05 07:56:39;;;;;;;0.00;0.00;;;30.30;37.20;;;;;;5053003;28;20037;-76
2021/09/05 07:59:05;;;;;;;0.00;0.00;;;30.20;37.30;;;;;;5054966;28;20055;-76
2021/09/05 08:01:30;;;;;;;0.00;0.00;;;30.10;37.60;;;;;;5053458;28;20025;-77
2021/09/05 08:03:56;;;;;;;0.00;0.00;;;29.80;37.30;;;;;;5054582;28;20029;-77
2021/09/05 08:06:23;;;;;;;0.00;0.00;;;29.50;37.30;;;;;;5054331;28;20025;-77
2021/09/05 08:08:49;;;;;;;0.00;0.00;;;29.10;36.70;;;;;;5054389;28;20147;-76
2021/09/05 08:11:14;;;;;;;0.00;0.00;;;28.90;37.00;;;;;;5053925;28;20478;-77
2021/09/05 08:13:40;;;;;;;0.00;0.00;;;28.80;37.30;;;;;;5054558;28;20029;-76
2021/09/05 08:16:06;;;;;;;0.00;0.00;;;29.10;37.20;;;;;;5052654;28;20033;-76
2021/09/05 08:18:36;;;;;;;0.00;0.00;;;29.50;36.90;;;;;;5054531;28;20043;-75
2021/09/05 08:21:06;;;;;;;0.00;0.00;;;29.90;36.40;;;;;;5052648;28;20040;-76
2021/09/05 08:23:32;;;;;;;0.00;0.00;;;30.30;36.40;;;;;;5054491;28;20075;-76
2021/09/05 08:25:58;;;;;;;0.00;0.00;;;30.60;36.00;;;;;;5053890;28;20087;-75
2021/09/05 08:28:24;;;;;;;0.00;0.00;;;29.90;35.10;;;;;;5052658;28;20041;-75
2021/09/05 08:30:50;;;;;;;0.00;0.00;;;29.00;35.70;;;;;;5054100;28;20029;-76
2021/09/05 08:33:16;;;;;;;0.00;0.00;;;28.20;36.20;;;;;;5054087;28;20033;-76
2021/09/05 08:35:42;;;;;;;0.00;0.00;;;28.40;37.20;;;;;;5053755;28;20049;-76
2021/09/05 08:38:08;;;;;;;0.00;0.00;;;29.20;37.40;;;;;;5053716;28;20037;-76
2021/09/05 08:40:42;;;;;;;0.00;0.00;;;30.10;36.90;;;;;;5052104;28;20028;-75
2021/09/05 08:43:09;;;;;;;0.00;0.00;;;30.60;35.80;;;;;;5053460;28;20370;-76
2021/09/05 08:45:36;;;;;;;0.00;0.00;;;30.20;35.50;;;;;;5053426;28;20035;-76
2021/09/05 08:48:05;;;;;;;0.00;0.00;;;30.30;35.80;;;;;;5053387;28;20049;-75
2021/09/05 08:50:32;;;;;;;0.00;0.00;;;29.70;35.10;;;;;;5053304;28;20020;-75
2021/09/05 08:52:58;;;;;;;0.00;0.00;;;28.80;35.10;;;;;;5054497;28;20035;-75
2021/09/05 08:55:24;;;;;;;0.00;0.00;;;28.30;35.80;;;;;;5053173;28;20033;-75
2021/09/05 08:57:50;;;;;;;0.00;0.00;;;27.70;35.70;;;;;;5053454;28;20124;-75
2021/09/05 09:00:16;;;;;;;0.00;0.00;;;27.60;36.20;;;;;;5051797;28;20052;-76
2021/09/05 09:02:54;;;;;;;0.00;0.00;;;28.40;36.30;;;;;;5053342;28;20060;-76
2021/09/05 09:05:29;;;;;;;0.00;0.00;;;29.70;35.50;;;;;;5052994;28;20021;-75
2021/09/05 09:08:02;;;;;;;0.00;0.00;;;30.80;34.90;;;;;;5052105;28;20033;-77
2021/09/05 09:10:28;;;;;;;0.10;0.10;;;31.60;34.10;;;;;;5053150;28;20082;-76
2021/09/05 09:12:54;;;;;;;0.00;0.00;;;32.60;34.30;;;;;;5052132;28;20041;-77
2021/09/05 09:15:32;;;;;;;0.00;0.00;;;32.80;32.60;;;;;;5053064;28;20421;-76
2021/09/05 09:18:03;;;;;;;0.10;0.10;;;31.70;31.70;;;;;;5053298;28;20482;-75
2021/09/05 09:20:34;;;;;;;0.00;0.00;;;30.90;32.80;;;;;;5052824;28;20021;-75
2021/09/05 09:23:09;;;;;;;0.10;0.10;;;31.30;33.20;;;;;;5053059;28;20393;-75
2021/09/05 09:25:35;;;;;;;0.00;0.00;;;32.40;32.90;;;;;;5052970;28;20032;-76
2021/09/05 09:28:02;;;;;;;0.00;0.00;;;33.20;32.40;;;;;;5053175;28;20029;-76
2021/09/05 09:30:35;;;;;;;0.00;0.00;;;32.80;31.80;;;;;;5051643;28;20028;-76
2021/09/05 09:33:00;;;;;;;0.10;0.10;;;31.70;31.40;;;;;;5053077;28;20033;-76
2021/09/05 09:35:45;;;;;;;0.10;0.10;;;31.40;32.60;;;;;;5053391;28;20058;-77
2021/09/05 09:38:14;;;;;;;0.00;0.00;;;31.50;32.20;;;;;;5053038;28;20045;-76
2021/09/05 09:40:40;;;;;;;0.03;0.03;;;32.20;32.40;;;;;;5052825;28;20032;-75
2021/09/05 09:43:19;;;;;;;0.10;0.10;;;33.10;32.20;;;;;;5052905;28;20025;-76
2021/09/05 09:45:45;;;;;;;0.00;0.00;;;34.20;31.60;;;;;;5052680;28;20017;-76
2021/09/05 09:48:10;;;;;;;0.00;0.00;;;34.30;31.20;;;;;;5053031;28;20040;-76
2021/09/05 09:50:42;;;;;;;0.10;0.10;;;33.30;30.60;;;;;;5052842;28;20033;-75
2021/09/05 09:53:09;;;;;;;0.00;0.00;;;32.30;30.90;;;;;;5054329;28;20033;-76
2021/09/05 09:55:39;;;;;;;0.05;0.05;;;32.10;31.60;;;;;;5052586;28;20075;-75
2021/09/05 09:58:06;;;;;;;0.10;0.10;;;32.70;31.60;;;;;;5051225;28;20067;-75
2021/09/05 10:00:32;;;;;;;0.00;0.00;;;33.80;31.70;;;;;;5052619;28;20367;-76
2021/09/05 10:03:00;;;;;;;0.10;0.10;;;34.70;30.70;;;;;;5052879;28;20056;-76
2021/09/05 10:05:27;;;;;;;0.00;0.00;;;34.90;30.20;;;;;;5052573;28;20055;-76
2021/09/05 10:07:55;;;;;;;0.10;0.10;;;35.20;30.10;;;;;;5052546;28;20037;-76
2021/09/05 10:10:23;;;;;;;0.10;0.10;;;35.00;29.80;;;;;;5052607;28;20025;-76
2021/09/05 10:12:50;;;;;;;0.08;0.08;;;34.80;30.00;;;;;;5051364;28;20461;-76
2021/09/05 10:15:18;;;;;;;0.10;0.10;;;34.40;29.90;;;;;;5052384;28;20556;-76
2021/09/05 10:17:44;;;;;;;0.00;0.00;;;34.40;30.00;;;;;;5052197;28;20049;-76
2021/09/05 10:20:11;;;;;;;0.10;0.10;;;34.60;30.00;;;;;;5052429;28;20039;-75
2021/09/05 10:22:37;;;;;;;0.10;0.10;;;35.10;29.90;;;;;;5051121;28;20086;-76
2021/09/05 10:25:05;;;;;;;0.10;0.10;;;35.90;29.60;;;;;;5052325;28;20033;-75
2021/09/05 10:27:33;;;;;;;0.10;0.10;;;36.20;29.30;;;;;;5052305;28;20064;-76
2021/09/05 10:30:08;;;;;;;0.10;0.10;;;36.80;29.30;;;;;;5052310;28;20477;-75
2021/09/05 10:32:58;;;;;;;0.10;0.10;;;37.20;28.50;;;;;;5051785;28;20382;-76
2021/09/05 10:35:46;;;;;;;0.10;0.10;;;37.30;28.70;;;;;;5048292;28;20029;-77
2021/09/05 10:38:14;;;;;;;0.10;0.10;;;37.30;28.40;;;;;;5056114;28;20037;-76
2021/09/05 10:40:46;;;;;;;0.10;0.10;;;37.00;28.30;;;;;;5055830;28;20017;-76
2021/09/05 10:43:12;;;;;;;0.10;0.10;;;36.90;27.70;;;;;;5056129;28;20481;-76
2021/09/05 10:45:40;;;;;;;0.10;0.10;;;36.60;28.10;;;;;;5055817;28;20021;-76
2021/09/05 10:48:27;;;;;;;0.10;0.10;;;36.70;27.90;;;;;;5055789;28;20389;-76
2021/09/05 10:50:53;;;;;;;0.10;0.10;;;36.50;27.80;;;;;;5055577;28;20025;-76
2021/09/05 10:53:22;;;;;;;0.10;0.10;;;37.00;28.50;;;;;;5069048;22;20056;-74
2021/09/05 10:56:04;;;;;;;0.10;0.10;;;37.80;28.40;;;;;;5055824;28;20025;-75
2021/09/05 10:58:38;;;;;;;0.10;0.10;;;38.50;27.20;;;;;;5055679;28;20478;-75
2021/09/05 11:01:25;;;;;;;0.10;0.10;;;39.10;28.00;;;;;;5055568;28;20031;-75
2021/09/05 11:04:09;;;;;;;0.10;0.10;;;39.30;27.50;;;;;;5055529;28;20029;-75
2021/09/05 11:06:51;;;;;;;0.10;0.10;;;38.10;27.10;;;;;;5055564;28;20102;-75
2021/09/05 11:09:23;;;;;;;0.10;0.10;;;37.40;28.00;;;;;;5055599;28;20028;-74
2021/09/05 11:12:01;;;;;;;0.10;0.10;;;37.60;28.10;;;;;;5054229;28;20040;-76
2021/09/05 11:14:40;;;;;;;0.10;0.10;;;38.20;27.80;;;;;;5055603;28;20029;-75
2021/09/05 11:17:08;;;;;;;0.10;0.10;;;38.70;27.20;;;;;;5055377;28;20025;-74
2021/09/05 11:19:35;;;;;;;0.10;0.10;;;39.00;27.80;;;;;;5055347;28;20025;-74
2021/09/05 11:22:07;;;;;;;0.00;0.00;;;38.90;27.50;;;;;;5055416;28;20048;-74
2021/09/05 11:24:33;;;;;;;0.03;0.03;;;38.40;27.50;;;;;;5055187;28;20390;-75
2021/09/05 11:27:00;;;;;;;0.00;0.00;;;37.10;27.40;;;;;;5054983;28;20051;-75
2021/09/05 11:29:27;;;;;;;0.00;0.00;;;35.30;27.60;;;;;;5054986;28;20492;-74
2021/09/05 11:32:02;;;;;;;0.00;0.00;;;33.50;27.70;;;;;;5054007;28;20029;-74
2021/09/05 11:34:28;;;;;;;0.00;0.00;;;32.20;28.30;;;;;;5053746;28;20171;-74
2021/09/05 11:36:54;;;;;;;0.00;0.00;;;32.00;29.00;;;;;;5055230;28;20444;-74
2021/09/05 11:39:20;;;;;;;0.00;0.00;;;32.60;29.00;;;;;;5054789;28;20106;-74
2021/09/05 11:41:52;;;;;;;0.10;0.10;;;33.80;28.90;;;;;;5053739;28;20033;-74
2021/09/05 11:44:32;;;;;;;0.05;0.05;;;35.20;28.60;;;;;;5052043;28;20356;-74
2021/09/05 11:47:19;;;;;;;0.10;0.10;;;36.20;27.80;;;;;;5054294;28;20505;-74
2021/09/05 11:49:50;;;;;;;0.00;0.00;;;36.70;27.50;;;;;;5054469;28;20029;-74
2021/09/05 11:52:24;;;;;;;0.10;0.10;;;37.00;27.50;;;;;;5055063;28;20025;-74
2021/09/05 11:55:00;;;;;;;0.10;0.10;;;37.00;27.30;;;;;;5053781;28;20028;-74
2021/09/05 11:57:27;;;;;;;0.10;0.10;;;37.00;28.30;;;;;;5054616;28;20446;-74
2021/09/05 11:59:53;;;;;;;0.10;0.10;;;37.40;28.00;;;;;;5053251;28;20040;-75
2021/09/05 12:02:26;;;;;;;0.10;0.10;;;38.10;27.80;;;;;;5052609;28;20041;-75
2021/09/05 12:04:52;;;;;;;0.10;0.10;;;38.50;27.30;;;;;;5052524;28;20032;-75
2021/09/05 12:07:18;;;;;;;0.03;0.03;;;38.80;27.60;;;;;;5052359;28;20048;-74
2021/09/05 12:09:43;;;;;;;0.05;0.05;;;39.00;27.30;;;;;;5052476;28;20025;-75
2021/09/05 12:12:09;;;;;;;0.00;0.00;;;38.90;27.10;;;;;;5052415;28;20029;-75
2021/09/05 12:14:38;;;;;;;0.00;0.00;;;37.70;26.80;;;;;;5052854;28;20061;-74
2021/09/05 12:17:18;;;;;;;0.00;0.00;;;35.60;27.10;;;;;;5053431;28;20036;-74
2021/09/05 12:20:03;;;;;;;0.00;0.00;;;33.20;27.50;;;;;;5053393;28;20060;-74
2021/09/05 12:22:52;;;;;;;0.00;0.00;;;31.70;28.50;;;;;;5054228;28;20029;-74
2021/09/05 12:25:33;;;;;;;0.00;0.00;;;31.40;28.60;;;;;;5054014;28;20035;-74
2021/09/05 12:28:08;;;;;;;0.00;0.00;;;30.70;28.50;;;;;;5052638;28;20512;-74
2021/09/05 12:30:35;;;;;;;0.00;0.00;;;29.40;29.20;;;;;;5053855;28;20405;-74
2021/09/05 12:33:17;;;;;;;0.00;0.00;;;28.80;29.50;;;;;;5054293;28;20031;-74
2021/09/05 12:35:51;;;;;;;0.00;0.00;;;29.20;29.70;;;;;;5054239;28;20098;-74
2021/09/05 12:38:30;;;;;;;0.00;0.00;;;29.60;29.40;;;;;;5054424;28;20377;-74
2021/09/05 12:41:14;;;;;;;0.00;0.00;;;29.30;29.40;;;;;;5053749;28;20534;-74
2021/09/05 12:43:42;;;;;;;;;;;28.40;29.80;;;;;;5054125;28;20036;-74
2021/09/05 12:46:08;;;;;;;0.00;0.00;;;27.40;30.50;;;;;;5053430;28;19904;-74
2021/09/05 12:48:36;;;;;;;0.00;0.00;;;27.30;30.40;;;;;;5053710;28;20493;-74
2021/09/05 12:51:12;;;;;;;0.00;0.00;;;27.70;30.00;;;;;;5053614;28;20067;-74